AFL796 UWWW-LTAI
Flight info
| Callsign | AFL796 |
|---|---|
| Flight time | N/A |
| Altitude | 36000 |
| Route | NIDOG2Y NIDOG T790 RORNA T789 DAFOS P135 KR G900 OBABI/K0850F370 G900 KUTON/K0837F380 G900 ODIRA/N0452F380 UW96 SIN UT61 BAG/N0452F370 UW77 HALIL UP29 HISAR |
| Aircraft | A20N/M-SDE2E3FGHIRWXY/LB1 |
Departure
| Time | 2026-04-28 10:27 |
|---|---|
| Airport | Kurumoch International Airport (UWWW) |
Arrival
| Time | N/A |
|---|---|
| Airport | Antalya International Airport (LTAI) |
| Time | Latitude | Longitude | Altitude | Speed | Heading |
|---|---|---|---|---|---|
| 2026-04-28 10:01 | 53.51156 | 50.15879 | 488 ft | 0 kts | 330° |
| 2026-04-28 10:18 | 53.51146 | 50.15887 | 488 ft | 2 kts | 330° |
| 2026-04-28 10:19 | 53.51133 | 50.15900 | 488 ft | 2 kts | 330° |
| 2026-04-28 10:19 | 53.51120 | 50.15912 | 488 ft | 2 kts | 330° |
| 2026-04-28 10:19 | 53.51107 | 50.15924 | 488 ft | 2 kts | 351° |
| 2026-04-28 10:19 | 53.51091 | 50.15923 | 488 ft | 2 kts | 20° |
| 2026-04-28 10:20 | 53.51079 | 50.15910 | 488 ft | 2 kts | 49° |
| 2026-04-28 10:20 | 53.51071 | 50.15888 | 488 ft | 2 kts | 66° |
| 2026-04-28 10:20 | 53.51069 | 50.15877 | 488 ft | 0 kts | 60° |
| 2026-04-28 10:23 | 53.51078 | 50.15908 | 488 ft | 6 kts | 63° |
| 2026-04-28 10:23 | 53.51112 | 50.16014 | 488 ft | 13 kts | 62° |
| 2026-04-28 10:24 | 53.51160 | 50.16165 | 488 ft | 15 kts | 62° |
| 2026-04-28 10:24 | 53.51213 | 50.16327 | 488 ft | 15 kts | 61° |
| 2026-04-28 10:24 | 53.51267 | 50.16493 | 488 ft | 16 kts | 62° |
| 2026-04-28 10:24 | 53.51321 | 50.16663 | 488 ft | 16 kts | 61° |
| 2026-04-28 10:25 | 53.51377 | 50.16832 | 488 ft | 13 kts | 61° |
| 2026-04-28 10:25 | 53.51408 | 50.16929 | 488 ft | 9 kts | 63° |
| 2026-04-28 10:25 | 53.51436 | 50.17036 | 488 ft | 10 kts | 86° |
| 2026-04-28 10:25 | 53.51397 | 50.17119 | 488 ft | 1 kts | 161° |
| 2026-04-28 10:26 | 53.51397 | 50.17120 | 488 ft | 0 kts | 161° |
| 2026-04-28 10:26 | 53.51394 | 50.17121 | 488 ft | 2 kts | 162° |
| 2026-04-28 10:26 | 53.51169 | 50.17255 | 488 ft | 71 kts | 161° |
| 2026-04-28 10:26 | 53.50488 | 50.17666 | 489 ft | 135 kts | 160° |
| 2026-04-28 10:27 | 53.49486 | 50.18272 | 757 ft | 163 kts | 167° |
| 2026-04-28 10:27 | 53.48425 | 50.18925 | 1403 ft | 167 kts | 167° |
| 2026-04-28 10:27 | 53.47335 | 50.19603 | 2168 ft | 168 kts | 169° |
| 2026-04-28 10:27 | 53.46209 | 50.20255 | 2593 ft | 181 kts | 170° |
| 2026-04-28 10:28 | 53.44968 | 50.20965 | 2991 ft | 197 kts | 168° |
| 2026-04-28 10:28 | 53.43615 | 50.21752 | 3395 ft | 216 kts | 168° |
| 2026-04-28 10:28 | 53.42119 | 50.22479 | 4002 ft | 220 kts | 182° |
| 2026-04-28 10:29 | 53.39648 | 50.20240 | 5335 ft | 221 kts | 240° |
| 2026-04-28 10:29 | 53.39084 | 50.17735 | 5773 ft | 236 kts | 248° |
| 2026-04-28 10:29 | 53.38537 | 50.15155 | 5924 ft | 238 kts | 247° |
| 2026-04-28 10:29 | 53.37962 | 50.12524 | 5922 ft | 238 kts | 248° |
| 2026-04-28 10:30 | 53.37396 | 50.09916 | 5927 ft | 238 kts | 248° |
| 2026-04-28 10:30 | 53.36830 | 50.07299 | 6028 ft | 242 kts | 248° |
| 2026-04-28 10:30 | 53.36252 | 50.04613 | 6724 ft | 246 kts | 248° |
| 2026-04-28 10:30 | 53.35688 | 50.01990 | 7649 ft | 243 kts | 248° |
| 2026-04-28 10:31 | 53.35112 | 49.99316 | 8427 ft | 246 kts | 248° |
| 2026-04-28 10:31 | 53.34537 | 49.96650 | 9177 ft | 248 kts | 248° |
| 2026-04-28 10:31 | 53.33947 | 49.93915 | 9945 ft | 250 kts | 249° |
| 2026-04-28 10:31 | 53.33356 | 49.91181 | 10531 ft | 258 kts | 249° |
| 2026-04-28 10:32 | 53.32726 | 49.88265 | 10858 ft | 275 kts | 250° |
| 2026-04-28 10:32 | 53.32153 | 49.85130 | 11187 ft | 292 kts | 254° |
| 2026-04-28 10:32 | 53.31731 | 49.81703 | 11529 ft | 308 kts | 259° |
| 2026-04-28 10:32 | 53.31464 | 49.78080 | 11825 ft | 323 kts | 262° |
| 2026-04-28 10:33 | 53.31224 | 49.74306 | 12295 ft | 332 kts | 262° |
| 2026-04-28 10:33 | 53.30978 | 49.70410 | 12947 ft | 335 kts | 262° |
| 2026-04-28 10:33 | 53.30734 | 49.66564 | 13579 ft | 338 kts | 262° |
| 2026-04-28 10:33 | 53.30485 | 49.62674 | 14187 ft | 341 kts | 262° |
| 2026-04-28 10:34 | 53.30226 | 49.58702 | 14801 ft | 344 kts | 262° |
| 2026-04-28 10:34 | 53.29969 | 49.54754 | 15364 ft | 347 kts | 262° |
| 2026-04-28 10:34 | 53.29705 | 49.50734 | 15918 ft | 351 kts | 262° |
| 2026-04-28 10:34 | 53.29435 | 49.46635 | 16485 ft | 354 kts | 262° |
| 2026-04-28 10:35 | 53.29166 | 49.42571 | 17026 ft | 357 kts | 262° |
| 2026-04-28 10:35 | 53.28898 | 49.38525 | 17549 ft | 360 kts | 262° |
| 2026-04-28 10:35 | 53.28685 | 49.35344 | 17963 ft | 362 kts | 262° |